Time;durP1;ratioP1;P1;durP2;ratioP2;P2;SDS_P1;SDS_P2;PMS_P1;PMS_P2;Temp;Humidity;BMP_temperature;BMP_pressure;BME280_temperature;BME280_humidity;BME280_pressure;Samples;Min_cycle;Max_cycle;Signal;HPM_P1;HPM_P2
2022/10/08 00:01:00;;;;;;;7.73;2.60;;;14.20;99.90;;;;;;5051527;28;20281;-77
2022/10/08 00:03:29;;;;;;;8.83;2.33;;;14.30;99.90;;;;;;5051165;28;20505;-81
2022/10/08 00:05:57;;;;;;;10.00;2.40;;;14.30;99.90;;;;;;5055698;28;20292;-79
2022/10/08 00:08:25;;;;;;;8.80;2.37;;;14.30;99.90;;;;;;5055886;28;20198;-78
2022/10/08 00:10:53;;;;;;;8.57;2.37;;;14.30;99.90;;;;;;5056169;28;20222;-78
2022/10/08 00:13:22;;;;;;;9.00;2.28;;;14.30;99.90;;;;;;5055709;28;20225;-82
2022/10/08 00:15:49;;;;;;;10.63;2.60;;;14.20;99.90;;;;;;5055967;28;20257;-80
2022/10/08 00:18:16;;;;;;;12.57;2.43;;;14.20;99.90;;;;;;5056904;28;20595;-86
2022/10/08 00:20:43;;;;;;;7.97;2.47;;;14.30;99.90;;;;;;5058044;28;20289;-88
2022/10/08 00:23:10;;;;;;;8.90;2.23;;;14.20;99.90;;;;;;5058055;28;20198;-89
2022/10/08 00:25:41;;;;;;;7.87;2.33;;;14.20;99.90;;;;;;5064498;28;20220;-88
2022/10/08 00:28:08;;;;;;;11.93;2.30;;;14.20;99.90;;;;;;5077348;28;20238;-87
2022/10/08 00:30:38;;;;;;;6.00;2.20;;;14.20;99.90;;;;;;5077613;28;20660;-86
2022/10/08 00:33:05;;;;;;;9.55;2.53;;;14.20;99.90;;;;;;5077621;28;20224;-88
2022/10/08 00:35:37;;;;;;;9.90;2.43;;;14.20;99.90;;;;;;5065352;28;20206;-88
2022/10/08 00:38:04;;;;;;;9.17;2.40;;;14.20;99.90;;;;;;5057836;28;20194;-84
2022/10/08 00:40:31;;;;;;;9.83;2.27;;;14.20;99.90;;;;;;5057154;28;20238;-85
2022/10/08 00:43:00;;;;;;;8.63;2.00;;;14.20;99.90;;;;;;5039286;28;20209;-88
2022/10/08 00:45:27;;;;;;;9.43;2.20;;;14.20;99.90;;;;;;5065485;28;20209;-84
2022/10/08 00:47:56;;;;;;;10.03;2.27;;;14.20;99.90;;;;;;5056755;28;20251;-89
2022/10/08 00:50:30;;;;;;;12.23;2.70;;;14.20;99.90;;;;;;5055959;28;20217;-87
2022/10/08 00:53:01;;;;;;;11.27;2.40;;;14.10;99.90;;;;;;5056933;28;20222;-89
2022/10/08 00:55:29;;;;;;;9.70;2.00;;;14.10;99.90;;;;;;5056946;28;20209;-88
2022/10/08 00:58:01;;;;;;;10.27;2.00;;;14.10;99.90;;;;;;5057329;28;20225;-90
2022/10/08 01:00:29;;;;;;;10.50;2.30;;;14.00;99.90;;;;;;5056996;28;20194;-88
2022/10/08 01:02:58;;;;;;;12.97;1.93;;;14.00;99.90;;;;;;5062042;28;20201;-87
2022/10/08 01:05:35;;;;;;;8.20;1.87;;;14.00;99.90;;;;;;5077375;28;20246;-88
2022/10/08 01:08:13;;;;;;;8.10;1.90;;;14.00;99.90;;;;;;5076789;28;20228;-89
2022/10/08 01:10:48;;;;;;;7.90;2.13;;;14.00;99.90;;;;;;5076521;28;20669;-91
2022/10/08 01:13:30;;;;;;;9.63;2.40;;;13.90;99.90;;;;;;5066774;28;20621;-85
2022/10/08 01:16:02;;;;;;;8.83;1.83;;;13.90;99.90;;;;;;5054965;28;20244;-88
2022/10/08 01:18:39;;;;;;;7.33;1.97;;;13.80;99.90;;;;;;5055397;28;20439;-79
2022/10/08 01:21:09;;;;;;;10.47;2.20;;;13.80;99.90;;;;;;5054082;28;20212;-78
2022/10/08 01:23:58;;;;;;;7.97;2.20;;;13.80;99.90;;;;;;5053621;28;20287;-82
2022/10/08 01:26:55;;;;;;;11.83;2.10;;;13.80;99.90;;;;;;5053863;28;20537;-79
2022/10/08 01:29:27;;;;;;;5.13;1.77;;;13.80;99.90;;;;;;5054114;28;20202;-78
2022/10/08 01:31:57;;;;;;;8.40;2.10;;;13.70;99.90;;;;;;5053676;28;20220;-81
2022/10/08 01:34:29;;;;;;;8.50;1.97;;;13.80;99.90;;;;;;5053916;28;20548;-78
2022/10/08 01:36:57;;;;;;;13.70;2.43;;;13.80;99.90;;;;;;5054300;28;20552;-81
2022/10/08 01:39:29;;;;;;;8.57;1.80;;;13.90;99.90;;;;;;5053035;28;20582;-77
2022/10/08 01:41:56;;;;;;;8.87;1.60;;;13.90;99.90;;;;;;5054033;28;20281;-80
2022/10/08 01:44:31;;;;;;;7.83;1.47;;;14.00;99.90;;;;;;5054045;28;20208;-81
2022/10/08 01:47:01;;;;;;;9.03;2.40;;;14.00;99.90;;;;;;5053710;28;20216;-82
2022/10/08 01:49:32;;;;;;;8.97;2.00;;;14.00;99.90;;;;;;5069034;28;20204;-78
2022/10/08 01:52:04;;;;;;;7.03;1.80;;;14.00;99.90;;;;;;5073724;28;20200;-78
2022/10/08 01:54:33;;;;;;;9.27;2.03;;;14.00;99.90;;;;;;5064189;28;20209;-78
2022/10/08 01:57:04;;;;;;;8.20;2.07;;;14.00;99.90;;;;;;5053862;28;20222;-79
2022/10/08 01:59:37;;;;;;;9.03;1.97;;;14.00;99.90;;;;;;5053064;28;20279;-80
2022/10/08 02:02:14;;;;;;;8.60;2.03;;;14.10;99.90;;;;;;5053729;28;20197;-77
2022/10/08 02:04:41;;;;;;;8.17;2.20;;;14.10;99.90;;;;;;5053409;28;20586;-81
2022/10/08 02:07:10;;;;;;;6.40;1.60;;;14.00;99.90;;;;;;5069544;28;20308;-78
2022/10/08 02:09:39;;;;;;;6.93;1.70;;;14.00;99.90;;;;;;5073431;28;20197;-91
2022/10/08 02:12:07;;;;;;;13.17;1.60;;;14.10;99.90;;;;;;5055235;28;20194;-88
2022/10/08 02:14:39;;;;;;;10.20;2.33;;;14.10;99.90;;;;;;5054824;28;20201;-82
2022/10/08 02:17:17;;;;;;;10.73;2.33;;;14.20;99.90;;;;;;5053008;28;20241;-86
2022/10/08 02:19:53;;;;;;;12.20;2.67;;;14.30;99.90;;;;;;5054390;28;20574;-90
2022/10/08 02:22:24;;;;;;;10.57;1.93;;;14.30;99.90;;;;;;5055577;28;20200;-89
2022/10/08 02:24:55;;;;;;;8.53;1.80;;;14.30;99.90;;;;;;5055083;28;20234;-81
2022/10/08 02:27:26;;;;;;;6.07;1.90;;;14.20;99.90;;;;;;5053300;28;20273;-85
2022/10/08 02:30:02;;;;;;;5.57;1.77;;;14.10;99.90;;;;;;5055749;28;20289;-90
2022/10/08 02:32:34;;;;;;;7.30;2.13;;;14.10;99.90;;;;;;5075576;28;20248;-91
2022/10/08 02:35:10;;;;;;;10.80;1.97;;;14.10;99.90;;;;;;5075213;28;20186;-90
2022/10/08 02:37:41;;;;;;;8.00;1.60;;;14.00;99.90;;;;;;5075107;28;20577;-90
2022/10/08 02:40:12;;;;;;;5.13;1.20;;;14.00;99.90;;;;;;5075539;28;20189;-89
2022/10/08 02:42:43;;;;;;;4.77;1.50;;;14.00;99.90;;;;;;5074351;28;20196;-89
2022/10/08 02:45:16;;;;;;;6.10;2.17;;;14.00;99.90;;;;;;5061227;28;20603;-90
2022/10/08 02:47:46;;;;;;;12.07;2.97;;;14.00;99.90;;;;;;5056806;28;20194;-81
2022/10/08 02:50:18;;;;;;;6.30;1.60;;;14.00;99.90;;;;;;5075298;28;20193;-91
2022/10/08 02:52:47;;;;;;;11.13;2.73;;;14.10;99.90;;;;;;5075231;28;20210;-89
2022/10/08 02:55:22;;;;;;;8.23;2.17;;;14.00;99.90;;;;;;5075049;28;20208;-89
2022/10/08 02:57:56;;;;;;;6.27;1.87;;;14.00;99.90;;;;;;5055822;28;20653;-90
2022/10/08 03:00:34;;;;;;;8.30;1.63;;;14.00;99.90;;;;;;5055180;28;20186;-89
2022/10/08 03:03:08;;;;;;;10.57;2.33;;;14.00;99.90;;;;;;5069521;28;20369;-88
2022/10/08 03:05:36;;;;;;;11.10;3.20;;;14.00;99.90;;;;;;5074784;28;20197;-90
2022/10/08 03:08:05;;;;;;;13.27;2.03;;;14.00;99.90;;;;;;5062837;28;20214;-87
2022/10/08 03:10:35;;;;;;;10.80;1.90;;;14.10;99.90;;;;;;5054858;28;20202;-86
2022/10/08 03:13:03;;;;;;;7.93;2.10;;;14.10;99.90;;;;;;5055064;28;20236;-87
2022/10/08 03:15:33;;;;;;;11.87;2.63;;;14.00;99.90;;;;;;5061088;28;20288;-89
2022/10/08 03:18:03;;;;;;;9.57;3.23;;;14.00;99.90;;;;;;5076269;28;20239;-86
2022/10/08 03:20:30;;;;;;;15.37;2.40;;;13.90;99.90;;;;;;5076491;28;20205;-86
2022/10/08 03:23:00;;;;;;;9.83;2.53;;;14.00;99.90;;;;;;5075361;28;20204;-86
2022/10/08 03:25:27;;;;;;;6.33;2.20;;;14.00;99.90;;;;;;5074636;28;20198;-86
2022/10/08 03:27:53;;;;;;;6.77;1.97;;;13.90;99.90;;;;;;5074566;28;20204;-87
2022/10/08 03:30:20;;;;;;;11.83;2.93;;;14.00;99.90;;;;;;5058583;28;20201;-88
2022/10/08 03:32:48;;;;;;;9.15;2.40;;;14.00;99.90;;;;;;5054925;28;20224;-90
2022/10/08 03:35:16;;;;;;;11.73;2.55;;;14.00;99.90;;;;;;5066400;28;20676;-89
2022/10/08 03:37:42;;;;;;;9.20;2.00;;;14.00;99.90;;;;;;5074350;28;20205;-87
2022/10/08 03:40:10;;;;;;;8.03;1.97;;;13.90;99.90;;;;;;5059999;28;20209;-88
2022/10/08 03:42:37;;;;;;;6.45;2.33;;;13.90;99.90;;;;;;5054047;28;20190;-89
2022/10/08 03:45:05;;;;;;;5.90;2.00;;;13.90;99.90;;;;;;5054952;28;20210;-88
2022/10/08 03:47:31;;;;;;;8.87;2.90;;;14.00;99.90;;;;;;5054587;28;20208;-89
2022/10/08 03:50:00;;;;;;;9.80;2.40;;;14.00;99.90;;;;;;5054227;28;20190;-88
2022/10/08 03:52:27;;;;;;;7.77;2.00;;;14.00;99.90;;;;;;5054005;28;20213;-87
2022/10/08 03:54:54;;;;;;;8.13;2.00;;;14.00;99.90;;;;;;5054519;28;20308;-87
2022/10/08 03:57:20;;;;;;;7.33;2.40;;;13.90;99.90;;;;;;5054149;28;20222;-88
2022/10/08 03:59:47;;;;;;;13.83;2.57;;;13.90;99.90;;;;;;5054380;28;20205;-87
2022/10/08 04:02:14;;;;;;;7.13;1.90;;;13.80;99.90;;;;;;5067932;28;20201;-88
2022/10/08 04:04:41;;;;;;;8.13;1.43;;;13.80;99.90;;;;;;5074406;28;20194;-89
2022/10/08 04:07:09;;;;;;;7.93;2.33;;;13.80;99.90;;;;;;5054337;28;20762;-89
2022/10/08 04:09:36;;;;;;;5.60;1.80;;;13.80;99.90;;;;;;5053601;28;20294;-83
2022/10/08 04:12:03;;;;;;;14.50;2.37;;;13.80;99.90;;;;;;5053861;28;20212;-86
2022/10/08 04:14:30;;;;;;;9.53;2.13;;;13.80;99.90;;;;;;5054121;28;20218;-90
2022/10/08 04:16:56;;;;;;;3.47;1.53;;;13.80;99.90;;;;;;5053665;28;20230;-88
2022/10/08 04:19:23;;;;;;;10.80;3.13;;;13.80;99.90;;;;;;5051968;28;20204;-90
2022/10/08 04:21:50;;;;;;;9.47;2.70;;;13.80;99.90;;;;;;5052335;28;20285;-89
2022/10/08 04:24:18;;;;;;;10.93;2.13;;;13.80;99.90;;;;;;5053419;28;20287;-89
2022/10/08 04:26:45;;;;;;;11.77;2.30;;;13.80;99.90;;;;;;5072035;28;20288;-85
2022/10/08 04:29:12;;;;;;;9.47;1.83;;;13.70;99.90;;;;;;5073629;28;20505;-89
2022/10/08 04:31:39;;;;;;;6.07;1.60;;;13.80;99.90;;;;;;5073580;28;20515;-89
2022/10/08 04:34:06;;;;;;;9.30;1.80;;;13.80;99.90;;;;;;5073249;28;20221;-89
2022/10/08 04:36:33;;;;;;;8.63;1.50;;;13.80;99.90;;;;;;5072973;28;20193;-88
2022/10/08 04:39:00;;;;;;;7.77;2.03;;;13.80;99.90;;;;;;5072363;28;20201;-84
2022/10/08 04:41:28;;;;;;;12.20;1.97;;;13.70;99.90;;;;;;5071998;28;20209;-84
2022/10/08 04:43:59;;;;;;;7.40;2.00;;;13.70;99.90;;;;;;5052644;28;20666;-87
2022/10/08 04:46:26;;;;;;;6.67;1.60;;;13.70;99.90;;;;;;5052566;28;20217;-87
2022/10/08 04:48:54;;;;;;;8.10;2.43;;;13.80;99.90;;;;;;5051816;28;20208;-89
2022/10/08 04:51:23;;;;;;;8.70;1.77;;;13.70;99.90;;;;;;5054136;28;20225;-78
2022/10/08 04:53:51;;;;;;;7.93;2.17;;;13.70;99.90;;;;;;5058356;28;20220;-85
2022/10/08 04:56:20;;;;;;;5.40;1.80;;;13.70;99.90;;;;;;5056488;28;20222;-77
2022/10/08 04:58:49;;;;;;;9.87;1.37;;;13.70;99.90;;;;;;5055202;28;20251;-79
2022/10/08 05:01:18;;;;;;;7.47;1.67;;;13.70;99.90;;;;;;5055350;28;20198;-82
2022/10/08 05:03:48;;;;;;;9.33;3.23;;;13.70;99.90;;;;;;5053601;28;20206;-85
2022/10/08 05:06:15;;;;;;;10.67;4.60;;;13.70;99.90;;;;;;5055435;28;20201;-78
2022/10/08 05:08:43;;;;;;;8.63;3.73;;;13.70;99.90;;;;;;5054047;28;20274;-77
2022/10/08 05:11:10;;;;;;;6.63;2.20;;;13.70;99.90;;;;;;5054997;28;20202;-78
2022/10/08 05:13:37;;;;;;;8.10;1.87;;;13.70;99.90;;;;;;5054516;28;20230;-83
2022/10/08 05:16:08;;;;;;;6.77;1.63;;;13.70;99.90;;;;;;5054557;28;20241;-85
2022/10/08 05:18:35;;;;;;;6.27;1.53;;;13.60;99.90;;;;;;5054834;28;20272;-82
2022/10/08 05:21:04;;;;;;;3.50;1.00;;;13.60;99.90;;;;;;5055341;28;20401;-80
2022/10/08 05:23:31;;;;;;;5.73;1.80;;;13.60;99.90;;;;;;5055419;28;20273;-80
2022/10/08 05:25:58;;;;;;;4.83;1.50;;;13.50;99.90;;;;;;5075359;28;20205;-80
2022/10/08 05:28:25;;;;;;;7.10;1.63;;;13.50;99.90;;;;;;5074983;28;20594;-85
2022/10/08 05:30:52;;;;;;;7.47;1.60;;;13.50;99.90;;;;;;5074535;28;20216;-89
2022/10/08 05:33:20;;;;;;;7.87;1.60;;;13.40;99.90;;;;;;5074427;28;20229;-88
2022/10/08 05:35:47;;;;;;;7.10;1.63;;;13.50;99.90;;;;;;5074945;28;20213;-86
2022/10/08 05:38:14;;;;;;;6.97;1.63;;;13.50;99.90;;;;;;5072603;28;20288;-88
2022/10/08 05:40:41;;;;;;;8.73;2.03;;;13.40;99.90;;;;;;5057007;28;20202;-88
2022/10/08 05:43:08;;;;;;;8.13;2.10;;;13.50;99.90;;;;;;5056731;28;20201;-85
2022/10/08 05:45:34;;;;;;;5.70;1.40;;;13.50;99.90;;;;;;5053730;28;20210;-90
2022/10/08 05:48:01;;;;;;;6.70;1.57;;;13.50;99.90;;;;;;5064890;28;20288;-86
2022/10/08 05:50:30;;;;;;;7.00;1.60;;;13.50;99.90;;;;;;5075881;28;20210;-88
2022/10/08 05:52:56;;;;;;;8.53;2.40;;;13.50;99.90;;;;;;5056172;28;20567;-90
2022/10/08 05:55:23;;;;;;;4.07;1.30;;;13.50;99.90;;;;;;5056441;28;20249;-89
2022/10/08 05:57:50;;;;;;;6.27;1.20;;;13.50;99.90;;;;;;5055890;28;20871;-90
2022/10/08 06:00:17;;;;;;;4.67;1.30;;;13.50;99.90;;;;;;5067207;28;20205;-89
2022/10/08 06:02:44;;;;;;;6.63;1.43;;;13.50;99.90;;;;;;5075597;28;20300;-84
2022/10/08 06:05:11;;;;;;;8.60;1.50;;;13.40;99.90;;;;;;5076024;28;20202;-86
2022/10/08 06:07:39;;;;;;;7.47;1.73;;;13.40;99.90;;;;;;5063198;28;20204;-89
2022/10/08 06:10:07;;;;;;;7.60;1.80;;;13.40;99.90;;;;;;5056075;28;20190;-89
2022/10/08 06:12:34;;;;;;;7.50;1.60;;;13.40;99.90;;;;;;5062588;28;20239;-87
2022/10/08 06:15:00;;;;;;;4.40;1.63;;;13.50;98.40;;;;;;5076191;28;20249;-87
2022/10/08 06:17:27;;;;;;;8.00;1.50;;;13.50;99.90;;;;;;5075576;28;20229;-88
2022/10/08 06:19:54;;;;;;;8.37;1.93;;;13.50;99.90;;;;;;5068473;28;20212;-86
2022/10/08 06:22:21;;;;;;;9.93;2.07;;;13.50;99.90;;;;;;5055883;28;20289;-81
2022/10/08 06:24:49;;;;;;;9.27;2.40;;;13.60;99.90;;;;;;5056176;28;20202;-88
2022/10/08 06:27:16;;;;;;;7.27;1.90;;;13.60;99.90;;;;;;5055815;28;20213;-84
2022/10/08 06:29:43;;;;;;;6.10;1.90;;;13.60;99.90;;;;;;5055518;28;20208;-90
2022/10/08 06:32:10;;;;;;;10.47;2.07;;;13.60;99.90;;;;;;5055179;28;20277;-90
2022/10/08 06:34:37;;;;;;;11.03;2.30;;;13.60;99.90;;;;;;5054872;28;20222;-86
2022/10/08 06:37:03;;;;;;;8.93;2.47;;;13.60;99.90;;;;;;5056134;28;20224;-83
2022/10/08 06:39:30;;;;;;;10.30;1.93;;;13.60;99.90;;;;;;5075354;28;20265;-89
2022/10/08 06:41:59;;;;;;;6.43;2.03;;;13.60;99.90;;;;;;5077644;28;20204;-84
2022/10/08 06:44:25;;;;;;;9.63;2.47;;;13.60;99.90;;;;;;5060949;28;20212;-81
2022/10/08 06:46:52;;;;;;;9.53;2.57;;;13.70;99.90;;;;;;5054481;28;20277;-86
2022/10/08 06:49:21;;;;;;;10.90;2.20;;;13.80;99.90;;;;;;5054045;28;20594;-87
2022/10/08 06:51:47;;;;;;;8.27;2.27;;;13.80;99.90;;;;;;5065456;28;20209;-88
2022/10/08 06:54:15;;;;;;;9.10;2.17;;;13.80;99.90;;;;;;5053725;28;20317;-82
2022/10/08 06:56:42;;;;;;;5.37;1.67;;;13.80;99.90;;;;;;5053743;28;20226;-81
2022/10/08 06:59:10;;;;;;;8.10;2.30;;;13.70;99.90;;;;;;5053351;28;20548;-79
2022/10/08 07:01:38;;;;;;;7.27;2.30;;;13.70;99.90;;;;;;5054588;28;20198;-77
2022/10/08 07:04:05;;;;;;;8.50;1.67;;;13.60;99.90;;;;;;5062839;28;20213;-78
2022/10/08 07:06:32;;;;;;;6.27;1.40;;;13.50;99.90;;;;;;5053576;28;20293;-83
2022/10/08 07:09:02;;;;;;;5.83;1.33;;;13.60;99.90;;;;;;5061677;28;20205;-85
2022/10/08 07:11:30;;;;;;;6.50;1.40;;;13.50;99.90;;;;;;5072388;28;20292;-84
2022/10/08 07:13:57;;;;;;;5.27;1.27;;;13.50;99.90;;;;;;5067574;28;20515;-79
2022/10/08 07:16:27;;;;;;;6.50;1.80;;;13.50;99.90;;;;;;5071451;28;20675;-85
2022/10/08 07:18:57;;;;;;;7.60;1.83;;;13.40;99.90;;;;;;5068952;28;20209;-86
2022/10/08 07:21:24;;;;;;;6.73;1.67;;;13.40;99.90;;;;;;5073357;28;20255;-88
2022/10/08 07:23:51;;;;;;;4.97;1.10;;;13.40;99.90;;;;;;5072783;28;20304;-83
2022/10/08 07:26:20;;;;;;;6.27;1.50;;;13.40;99.90;;;;;;5073391;28;20231;-80
2022/10/08 07:28:51;;;;;;;9.67;2.10;;;13.50;99.90;;;;;;5072227;28;20764;-86
2022/10/08 07:31:20;;;;;;;5.33;1.60;;;13.50;99.90;;;;;;5055922;28;20201;-80
2022/10/08 07:33:48;;;;;;;10.63;2.70;;;13.50;99.90;;;;;;5073284;28;20227;-80
2022/10/08 07:36:17;;;;;;;6.60;2.47;;;13.60;99.90;;;;;;5072979;28;20292;-79
2022/10/08 07:38:44;;;;;;;5.73;1.50;;;13.60;99.90;;;;;;5072340;28;20213;-84
2022/10/08 07:41:13;;;;;;;5.73;1.47;;;13.70;99.90;;;;;;5073270;28;20498;-80
2022/10/08 07:43:41;;;;;;;7.37;1.73;;;13.70;99.90;;;;;;5073147;28;20604;-82
2022/10/08 07:46:09;;;;;;;3.27;1.30;;;13.70;99.90;;;;;;5073588;28;20251;-85
2022/10/08 07:48:36;;;;;;;10.23;1.90;;;13.70;99.90;;;;;;5073274;28;20192;-83
2022/10/08 07:51:21;;;;;;;8.80;2.00;;;13.70;99.90;;;;;;5072619;28;20205;-82
2022/10/08 07:53:48;;;;;;;8.10;1.73;;;13.80;99.90;;;;;;5073608;28;20283;-87
2022/10/08 07:56:17;;;;;;;7.03;1.37;;;13.90;99.90;;;;;;5072758;28;20201;-80
2022/10/08 07:58:45;;;;;;;7.53;1.53;;;13.90;99.90;;;;;;5072811;28;20197;-87
2022/10/08 08:01:14;;;;;;;7.57;1.70;;;14.00;99.90;;;;;;5072750;28;20292;-86
2022/10/08 08:03:41;;;;;;;6.37;1.40;;;14.00;99.90;;;;;;5071678;28;20199;-79
2022/10/08 08:06:12;;;;;;;6.43;1.27;;;14.00;99.90;;;;;;5072856;28;20197;-83
2022/10/08 08:08:41;;;;;;;8.67;1.40;;;14.10;99.90;;;;;;5072427;28;20293;-83
2022/10/08 08:11:10;;;;;;;5.60;1.70;;;14.10;99.90;;;;;;5067935;28;20201;-82
2022/10/08 08:13:39;;;;;;;8.43;1.70;;;14.10;99.90;;;;;;5070092;28;20539;-78
2022/10/08 08:16:07;;;;;;;8.00;1.63;;;14.20;99.90;;;;;;5070914;28;20263;-79
2022/10/08 08:18:37;;;;;;;8.97;1.90;;;14.20;99.90;;;;;;5070225;28;20296;-79
2022/10/08 08:21:07;;;;;;;9.60;1.77;;;14.30;99.90;;;;;;5052575;28;20594;-79
2022/10/08 08:23:36;;;;;;;7.20;1.40;;;14.30;99.90;;;;;;5051050;28;20221;-80
2022/10/08 08:26:05;;;;;;;7.83;1.60;;;14.40;99.90;;;;;;5053101;28;20213;-78
2022/10/08 08:28:32;;;;;;;6.93;1.87;;;14.40;99.90;;;;;;5061358;28;20201;-84
2022/10/08 08:31:07;;;;;;;4.43;1.43;;;14.40;99.90;;;;;;5076019;28;20204;-82
2022/10/08 08:33:34;;;;;;;5.17;1.43;;;14.50;99.90;;;;;;5068316;28;20209;-79
2022/10/08 08:36:01;;;;;;;8.73;1.90;;;14.50;99.90;;;;;;5057246;28;20225;-84
2022/10/08 08:38:28;;;;;;;10.27;1.93;;;14.40;99.90;;;;;;5057133;28;20242;-84
2022/10/08 08:41:06;;;;;;;10.40;1.77;;;14.50;99.90;;;;;;5067985;28;20212;-84
2022/10/08 08:43:33;;;;;;;5.43;1.43;;;14.40;99.90;;;;;;5072225;28;20200;-80
2022/10/08 08:46:02;;;;;;;7.00;1.63;;;14.40;99.90;;;;;;5056619;28;20194;-78
2022/10/08 08:48:32;;;;;;;5.63;1.50;;;14.30;99.90;;;;;;5063472;28;20201;-89
2022/10/08 08:51:02;;;;;;;5.77;1.20;;;14.40;99.90;;;;;;5076203;28;20189;-85
2022/10/08 08:53:30;;;;;;;6.50;1.53;;;14.40;99.90;;;;;;5075165;28;20280;-79
2022/10/08 08:56:02;;;;;;;4.77;1.50;;;14.50;99.90;;;;;;5075823;28;20227;-85
2022/10/08 08:58:37;;;;;;;10.03;1.70;;;14.50;99.90;;;;;;5075768;28;20195;-82
2022/10/08 09:01:15;;;;;;;8.60;1.37;;;14.60;99.90;;;;;;5056007;28;20197;-83
2022/10/08 09:03:46;;;;;;;6.60;1.50;;;14.60;99.90;;;;;;5055820;28;20201;-79
2022/10/08 09:06:15;;;;;;;6.20;1.70;;;14.70;99.90;;;;;;5055210;28;20491;-83
2022/10/08 09:08:45;;;;;;;7.63;1.90;;;14.80;99.90;;;;;;5055546;28;20205;-89
2022/10/08 09:11:16;;;;;;;3.90;1.30;;;14.80;99.90;;;;;;5057214;28;20735;-86
2022/10/08 09:13:48;;;;;;;4.27;1.60;;;14.80;99.90;;;;;;5056565;28;20281;-82
2022/10/08 09:16:16;;;;;;;10.10;2.30;;;14.80;99.90;;;;;;5053936;28;20302;-88
2022/10/08 09:18:45;;;;;;;9.37;1.60;;;14.90;99.90;;;;;;5056208;28;20198;-87
2022/10/08 09:21:12;;;;;;;10.73;2.03;;;14.90;99.90;;;;;;5056154;28;20293;-83
2022/10/08 09:23:39;;;;;;;4.65;1.55;;;15.00;99.90;;;;;;5055911;28;20216;-84
2022/10/08 09:26:18;;;;;;;10.93;2.53;;;15.10;99.90;;;;;;5068206;28;20211;-86
2022/10/08 09:28:46;;;;;;;6.40;1.50;;;15.20;99.90;;;;;;5075750;28;20216;-87
2022/10/08 09:31:25;;;;;;;7.25;2.08;;;15.20;99.90;;;;;;5076051;28;20501;-89
2022/10/08 09:33:59;;;;;;;10.90;1.97;;;15.10;99.90;;;;;;5075921;28;20216;-86
2022/10/08 09:36:36;;;;;;;8.47;1.97;;;15.10;99.90;;;;;;5074986;28;20214;-85
2022/10/08 09:39:06;;;;;;;6.83;1.70;;;15.10;99.90;;;;;;5075946;28;20201;-87
2022/10/08 09:41:34;;;;;;;11.15;2.10;;;15.00;99.90;;;;;;5075011;28;20189;-80
2022/10/08 09:44:14;;;;;;;10.75;1.95;;;15.00;99.90;;;;;;5062193;28;20471;-88
2022/10/08 09:46:41;;;;;;;6.65;1.85;;;15.00;99.90;;;;;;5056482;28;20193;-83
2022/10/08 09:49:26;;;;;;;10.18;1.83;;;15.10;99.90;;;;;;5056383;28;20196;-84
2022/10/08 09:51:53;;;;;;;9.77;1.70;;;15.20;99.90;;;;;;5056090;28;20221;-87
2022/10/08 09:54:24;;;;;;;11.95;1.92;;;15.30;99.90;;;;;;5056159;28;20213;-86
2022/10/08 09:56:55;;;;;;;7.00;1.23;;;15.40;99.90;;;;;;5055231;28;20210;-84
2022/10/08 09:59:24;;;;;;;5.53;1.35;;;15.50;99.90;;;;;;5056379;28;20293;-87
2022/10/08 10:01:52;;;;;;;9.55;2.25;;;15.60;99.90;;;;;;5055957;28;20233;-90
2022/10/08 10:04:24;;;;;;;5.38;1.30;;;15.70;99.90;;;;;;5055969;28;20206;-88
2022/10/08 10:06:54;;;;;;;5.68;1.88;;;15.80;99.90;;;;;;5055376;28;20600;-89
2022/10/08 10:09:31;;;;;;;11.13;1.73;;;15.80;99.90;;;;;;5056087;28;20200;-86
2022/10/08 10:12:04;;;;;;;9.95;2.15;;;15.90;99.90;;;;;;5055951;28;20261;-88
2022/10/08 10:14:41;;;;;;;6.35;2.28;;;16.00;99.90;;;;;;5055804;28;20190;-86
2022/10/08 10:17:16;;;;;;;6.43;1.92;;;16.10;99.90;;;;;;5067713;28;20716;-90
2022/10/08 10:19:50;;;;;;;4.72;1.73;;;16.20;99.90;;;;;;5076164;28;20182;-83
2022/10/08 10:22:25;;;;;;;6.88;1.33;;;16.30;99.90;;;;;;5076233;28;20302;-88
2022/10/08 10:24:58;;;;;;;7.78;1.83;;;16.40;99.90;;;;;;5066012;28;20289;-88
2022/10/08 10:27:32;;;;;;;4.07;1.52;;;16.50;99.90;;;;;;5055464;28;20188;-85
2022/10/08 10:30:17;;;;;;;8.40;2.20;;;16.50;99.90;;;;;;5054835;28;20500;-86
2022/10/08 10:32:48;;;;;;;6.30;1.70;;;16.60;99.90;;;;;;5054894;28;20487;-80
2022/10/08 10:35:21;;;;;;;7.72;2.03;;;16.70;99.90;;;;;;5053901;28;20226;-82
2022/10/08 10:37:53;;;;;;;16.85;2.15;;;16.80;99.90;;;;;;5054489;28;20194;-84
2022/10/08 10:40:40;;;;;;;6.97;1.55;;;16.80;99.90;;;;;;5061808;28;20201;-84
2022/10/08 10:43:23;;;;;;;8.63;1.70;;;17.00;99.90;;;;;;5074571;28;20192;-84
2022/10/08 10:45:54;;;;;;;4.97;1.60;;;17.10;99.90;;;;;;5074296;28;20186;-85
2022/10/08 10:48:21;;;;;;;10.15;1.77;;;17.20;99.90;;;;;;5057985;28;20209;-83
2022/10/08 10:51:11;;;;;;;9.23;1.95;;;17.30;99.90;;;;;;5054052;28;20285;-82
2022/10/08 10:53:49;;;;;;;5.30;1.50;;;17.30;99.90;;;;;;5054720;28;20224;-86
2022/10/08 10:56:18;;;;;;;5.70;1.95;;;17.30;99.90;;;;;;5054487;28;20336;-84
2022/10/08 10:59:06;;;;;;;4.15;1.17;;;17.30;99.90;;;;;;5054383;28;20206;-85
2022/10/08 11:01:42;;;;;;;5.43;1.40;;;17.20;99.90;;;;;;5054397;28;20198;-85
2022/10/08 11:04:16;;;;;;;7.85;1.50;;;17.10;99.90;;;;;;5054898;28;20202;-82
2022/10/08 11:07:04;;;;;;;2.65;1.30;;;17.10;99.90;;;;;;5053992;28;20205;-83
2022/10/08 11:09:43;;;;;;;10.80;1.92;;;17.20;99.90;;;;;;5054033;28;20284;-84
2022/10/08 11:12:23;;;;;;;8.15;1.67;;;17.30;99.90;;;;;;5053564;28;20194;-83
2022/10/08 11:15:00;;;;;;;9.07;1.70;;;17.30;99.90;;;;;;5053353;28;20189;-82
2022/10/08 11:17:40;;;;;;;5.55;1.50;;;17.40;99.90;;;;;;5053548;28;20245;-81
2022/10/08 11:20:36;;;;;;;10.40;1.92;;;17.30;99.90;;;;;;5053898;28;20210;-82
2022/10/08 11:23:11;;;;;;;9.55;1.95;;;17.30;99.90;;;;;;5052637;28;20281;-83
2022/10/08 11:25:45;;;;;;;7.45;1.58;;;17.50;99.90;;;;;;5052352;28;20224;-84
2022/10/08 11:28:27;;;;;;;6.50;1.42;;;17.40;99.90;;;;;;5052777;28;20229;-79
2022/10/08 11:31:03;;;;;;;9.13;1.88;;;17.20;99.90;;;;;;5052365;28;20226;-82
2022/10/08 11:33:31;;;;;;;8.00;1.77;;;17.20;99.90;;;;;;5053020;28;20192;-79
2022/10/08 11:36:13;;;;;;;5.95;1.58;;;17.10;99.90;;;;;;5052641;28;20490;-82
2022/10/08 11:38:45;;;;;;;8.50;1.88;;;17.20;99.90;;;;;;5053838;28;20281;-81
2022/10/08 11:41:16;;;;;;;11.00;2.03;;;17.00;99.90;;;;;;5052813;28;20205;-79
2022/10/08 11:43:47;;;;;;;6.28;1.60;;;16.80;99.90;;;;;;5052311;28;20192;-84
2022/10/08 11:46:27;;;;;;;6.72;1.60;;;16.60;99.90;;;;;;5052233;28;20224;-77
2022/10/08 11:48:56;;;;;;;9.05;1.73;;;16.50;99.90;;;;;;5052484;28;20536;-80
2022/10/08 11:51:36;;;;;;;7.60;1.40;;;16.70;99.90;;;;;;5051570;28;20209;-81
2022/10/08 11:54:07;;;;;;;7.70;1.48;;;16.80;99.90;;;;;;5052254;28;20283;-79
2022/10/08 11:56:36;;;;;;;12.18;2.53;;;16.80;99.90;;;;;;5071556;28;20311;-80
2022/10/08 11:59:10;;;;;;;12.40;1.98;;;16.90;99.90;;;;;;5072661;28;20688;-82
2022/10/08 12:01:52;;;;;;;9.38;2.33;;;17.00;99.90;;;;;;5076491;28;20196;-79
2022/10/08 12:04:22;;;;;;;13.23;2.13;;;17.10;99.90;;;;;;5076233;28;20287;-81
2022/10/08 12:07:00;;;;;;;10.75;1.95;;;17.10;99.90;;;;;;5064681;28;20539;-79
2022/10/08 12:09:46;;;;;;;11.90;1.85;;;17.10;99.90;;;;;;5056393;28;20206;-80
2022/10/08 12:12:17;;;;;;;6.75;1.95;;;17.00;99.90;;;;;;5055609;28;20269;-86
2022/10/08 12:14:48;;;;;;;11.20;1.92;;;16.90;99.90;;;;;;5065790;28;20217;-83
2022/10/08 12:17:16;;;;;;;10.15;2.20;;;16.90;99.90;;;;;;5076192;28;20250;-87
2022/10/08 12:20:00;;;;;;;7.75;1.83;;;16.70;99.90;;;;;;5075826;28;20469;-80
2022/10/08 12:22:58;;;;;;;10.52;2.05;;;16.50;99.90;;;;;;5073579;28;20189;-79
2022/10/08 12:25:39;;;;;;;10.80;2.38;;;16.30;99.90;;;;;;5073019;28;20194;-85
2022/10/08 12:28:44;;;;;;;12.35;2.47;;;16.20;99.90;;;;;;5075373;28;20189;-79
2022/10/08 12:31:27;;;;;;;7.45;1.83;;;16.50;99.90;;;;;;5066758;28;20204;-80
2022/10/08 12:33:56;;;;;;;5.32;1.60;;;16.60;99.90;;;;;;5095374;28;20185;-79
2022/10/08 12:36:31;;;;;;;12.18;1.73;;;16.70;99.90;;;;;;5082392;28;20225;-80
2022/10/08 12:39:03;;;;;;;7.00;2.28;;;16.70;99.90;;;;;;5076019;28;20189;-85
2022/10/08 12:41:38;;;;;;;8.27;1.75;;;16.60;99.90;;;;;;5077466;28;20197;-81
2022/10/08 12:44:18;;;;;;;10.73;2.58;;;16.60;99.90;;;;;;5056344;28;20201;-85
2022/10/08 12:46:52;;;;;;;9.88;2.05;;;16.50;99.90;;;;;;5055877;28;20220;-86
2022/10/08 12:49:27;;;;;;;9.13;2.05;;;16.70;99.90;;;;;;5062312;28;20232;-82
2022/10/08 12:52:03;;;;;;;8.20;1.70;;;16.70;99.90;;;;;;5079124;28;20283;-83
2022/10/08 12:54:30;;;;;;;12.60;2.55;;;16.60;99.90;;;;;;5079501;28;20207;-85
2022/10/08 12:56:58;;;;;;;7.63;1.75;;;16.50;99.90;;;;;;5076638;28;20239;-86
2022/10/08 12:59:30;;;;;;;8.50;2.05;;;16.40;99.90;;;;;;5076577;28;20194;-80
2022/10/08 13:01:57;;;;;;;8.95;2.42;;;16.50;99.90;;;;;;5077091;28;20198;-81
2022/10/08 13:04:28;;;;;;;11.48;2.00;;;16.60;99.90;;;;;;5060373;28;20685;-84